Messwerte Gaspé

Temperatur

Temperatur
°C
1573686000 18.00 18.00 -6
1573689600 19.00 19.00 -6
1573693200 20.00 20.00 -5
1573696800 21.00 21.00
1573700400 22.00 22.00 -6
1573704000 23.00 23.00 -6
1573707600 0.00 0.00 -8
1573711200 1.00 1.00 -7
1573714800 2.00 2.00 -8
1573718400 3.00 3.00 -8
1573722000 4.00 4.00 -8
1573725600 5.00 5.00 -9
1573729200 6.00 6.00 -11
1573732800 7.00 7.00 -9
1573736400 8.00 8.00 -8
1573740000 9.00 9.00
1573743600 10.00 10.00 -4
1573747200 11.00 11.00 -4
1573750800 12.00 12.00 -3
1573754400 13.00 13.00 -3
1573758000 14.00 14.00 -3
1573761600 15.00 15.00 -3
1573765200 16.00 16.00 -4
1573768800 17.00 17.00 -4

Aktuellste Messwerte

Wettercharakter
Wetter: bedeckt
Temperatur
-4 °C
Feuchtigkeit
70 %
Wind
10 km/hWindrichtung: Süd
Luftdruck
1028 hPa
Messzeit: 14. November 2019, 17.00Datenquelle: METAR

Weitere Messstationen in der Nähe

Messstation Temperatur Entfernung
Cap Madeleine -3 °C 82 km
New Carlisle -3 °C 106 km
Port Menier - 119 km
Bathurst -5 °C 158 km
Ile Aux Perroquets -2 °C 162 km
Charlo Auto -5 °C 163 km
Cap Chat -3 °C 164 km

Wind

Windrichtung Böen Mittelwind
° km/h km/h
1573686000 18.00 17.00 - 18.00 280° 35 20
1573689600 19.00 18.00 - 19.00 300° 55 30
1573693200 20.00 19.00 - 20.00 310° 30 20
1573696800 21.00 20.00 - 21.00
1573700400 22.00 21.00 - 22.00 300° 30 15
1573704000 23.00 22.00 - 23.00 290° 30 20
1573707600 0.00 23.00 - 0.00 270° 15
1573711200 1.00 0.00 - 1.00 280° 20
1573714800 2.00 1.00 - 2.00 280° 20
1573718400 3.00 2.00 - 3.00 280° 15
1573722000 4.00 3.00 - 4.00 290° 15
1573725600 5.00 4.00 - 5.00 290° 15
1573729200 6.00 5.00 - 6.00 320° 5
1573732800 7.00 6.00 - 7.00 310° 15
1573736400 8.00 7.00 - 8.00 310° 10
1573740000 9.00 8.00 - 9.00
1573743600 10.00 9.00 - 10.00 260° 15
1573747200 11.00 10.00 - 11.00 260° 5
1573750800 12.00 11.00 - 12.00 0
1573754400 13.00 12.00 - 13.00 80° 5
1573758000 14.00 13.00 - 14.00 0
1573761600 15.00 14.00 - 15.00 5
1573765200 16.00 15.00 - 16.00 5
1573768800 17.00 16.00 - 17.00 190° 10

Ihre Wetterstation

Fehlt Ihre Wetterstation auf unserem Portal?

Schreiben Sie an network@meteonews.ch

Klima

Wann ist es am wärmsten? Wann regnet es am wenigsten? Unsere Klimadaten geben Auskunft.